sensor_id;sensor_type;location;lat;lon;timestamp;P1;durP1;ratioP1;P2;durP2;ratioP2
54923;SDS011;40825;52.270;20.984;2022-11-20T00:01:13;26.10;;;11.00;;
54923;SDS011;40825;52.270;20.984;2022-11-20T00:03:39;35.00;;;14.60;;
54923;SDS011;40825;52.270;20.984;2022-11-20T00:06:07;32.00;;;13.40;;
54923;SDS011;40825;52.270;20.984;2022-11-20T00:08:34;30.30;;;12.70;;
54923;SDS011;40825;52.270;20.984;2022-11-20T00:11:06;35.30;;;15.00;;
54923;SDS011;40825;52.270;20.984;2022-11-20T00:13:33;28.10;;;13.60;;
54923;SDS011;40825;52.270;20.984;2022-11-20T00:15:59;28.10;;;13.40;;
54923;SDS011;40825;52.270;20.984;2022-11-20T00:18:27;23.90;;;10.60;;
54923;SDS011;40825;52.270;20.984;2022-11-20T00:20:53;28.20;;;13.30;;
54923;SDS011;40825;52.270;20.984;2022-11-20T00:23:19;26.20;;;11.50;;
54923;SDS011;40825;52.270;20.984;2022-11-20T00:25:45;24.30;;;10.90;;
54923;SDS011;40825;52.270;20.984;2022-11-20T00:28:10;29.10;;;12.10;;
54923;SDS011;40825;52.270;20.984;2022-11-20T00:30:36;28.50;;;12.60;;
54923;SDS011;40825;52.270;20.984;2022-11-20T00:33:01;26.60;;;10.70;;
54923;SDS011;40825;52.270;20.984;2022-11-20T00:35:27;31.80;;;13.20;;
54923;SDS011;40825;52.270;20.984;2022-11-20T00:37:52;24.80;;;11.60;;
54923;SDS011;40825;52.270;20.984;2022-11-20T00:40:17;29.00;;;12.60;;
54923;SDS011;40825;52.270;20.984;2022-11-20T00:42:43;27.20;;;11.10;;
54923;SDS011;40825;52.270;20.984;2022-11-20T00:45:08;29.10;;;13.40;;
54923;SDS011;40825;52.270;20.984;2022-11-20T00:47:34;29.00;;;12.20;;
54923;SDS011;40825;52.270;20.984;2022-11-20T00:49:59;24.60;;;11.60;;
54923;SDS011;40825;52.270;20.984;2022-11-20T00:52:24;32.00;;;12.80;;
54923;SDS011;40825;52.270;20.984;2022-11-20T00:54:50;29.40;;;12.40;;
54923;SDS011;40825;52.270;20.984;2022-11-20T00:57:15;26.80;;;11.80;;
54923;SDS011;40825;52.270;20.984;2022-11-20T00:59:41;32.90;;;14.00;;
54923;SDS011;40825;52.270;20.984;2022-11-20T01:02:06;20.90;;;9.10;;
54923;SDS011;40825;52.270;20.984;2022-11-20T01:04:31;28.60;;;12.90;;
54923;SDS011;40825;52.270;20.984;2022-11-20T01:06:57;29.10;;;13.80;;
54923;SDS011;40825;52.270;20.984;2022-11-20T01:09:22;26.50;;;12.80;;
54923;SDS011;40825;52.270;20.984;2022-11-20T01:11:48;29.30;;;13.60;;
54923;SDS011;40825;52.270;20.984;2022-11-20T01:14:15;28.70;;;12.70;;
54923;SDS011;40825;52.270;20.984;2022-11-20T01:16:44;24.10;;;11.10;;
54923;SDS011;40825;52.270;20.984;2022-11-20T01:19:13;29.50;;;12.10;;
54923;SDS011;40825;52.270;20.984;2022-11-20T01:21:41;23.00;;;10.10;;
54923;SDS011;40825;52.270;20.984;2022-11-20T01:24:09;28.90;;;11.60;;
54923;SDS011;40825;52.270;20.984;2022-11-20T01:26:37;27.30;;;12.40;;
54923;SDS011;40825;52.270;20.984;2022-11-20T01:29:05;26.00;;;11.50;;
54923;SDS011;40825;52.270;20.984;2022-11-20T01:31:33;30.60;;;12.00;;
54923;SDS011;40825;52.270;20.984;2022-11-20T01:34:03;33.40;;;14.30;;
54923;SDS011;40825;52.270;20.984;2022-11-20T01:36:31;30.40;;;14.50;;
54923;SDS011;40825;52.270;20.984;2022-11-20T01:38:59;30.70;;;13.20;;
54923;SDS011;40825;52.270;20.984;2022-11-20T01:41:28;31.50;;;15.90;;
54923;SDS011;40825;52.270;20.984;2022-11-20T01:44:14;28.90;;;12.50;;
54923;SDS011;40825;52.270;20.984;2022-11-20T01:46:57;33.40;;;16.00;;
54923;SDS011;40825;52.270;20.984;2022-11-20T01:52:04;31.00;;;13.10;;
54923;SDS011;40825;52.270;20.984;2022-11-20T01:54:35;27.20;;;13.40;;
54923;SDS011;40825;52.270;20.984;2022-11-20T01:57:05;21.30;;;9.30;;
54923;SDS011;40825;52.270;20.984;2022-11-20T02:02:32;33.10;;;13.10;;
54923;SDS011;40825;52.270;20.984;2022-11-20T02:05:00;27.20;;;11.90;;
54923;SDS011;40825;52.270;20.984;2022-11-20T02:07:31;28.80;;;13.10;;
54923;SDS011;40825;52.270;20.984;2022-11-20T02:09:57;26.60;;;13.50;;
54923;SDS011;40825;52.270;20.984;2022-11-20T02:12:22;30.50;;;12.80;;
54923;SDS011;40825;52.270;20.984;2022-11-20T02:15:07;26.70;;;14.00;;
54923;SDS011;40825;52.270;20.984;2022-11-20T02:17:33;36.50;;;15.80;;
54923;SDS011;40825;52.270;20.984;2022-11-20T02:19:58;27.60;;;12.20;;
54923;SDS011;40825;52.270;20.984;2022-11-20T02:22:31;27.70;;;13.40;;
54923;SDS011;40825;52.270;20.984;2022-11-20T02:25:04;21.60;;;11.30;;
54923;SDS011;40825;52.270;20.984;2022-11-20T02:27:31;27.30;;;11.40;;
54923;SDS011;40825;52.270;20.984;2022-11-20T02:29:58;34.90;;;14.40;;
54923;SDS011;40825;52.270;20.984;2022-11-20T02:32:28;29.70;;;10.30;;
54923;SDS011;40825;52.270;20.984;2022-11-20T02:34:55;25.40;;;11.60;;
54923;SDS011;40825;52.270;20.984;2022-11-20T02:37:21;31.90;;;13.30;;
54923;SDS011;40825;52.270;20.984;2022-11-20T02:39:49;25.90;;;12.60;;
54923;SDS011;40825;52.270;20.984;2022-11-20T02:42:16;28.30;;;12.20;;
54923;SDS011;40825;52.270;20.984;2022-11-20T02:44:42;29.70;;;12.50;;
54923;SDS011;40825;52.270;20.984;2022-11-20T02:47:08;29.10;;;12.20;;
54923;SDS011;40825;52.270;20.984;2022-11-20T02:49:33;25.70;;;13.60;;
54923;SDS011;40825;52.270;20.984;2022-11-20T02:51:58;25.00;;;12.20;;
54923;SDS011;40825;52.270;20.984;2022-11-20T02:54:24;29.30;;;13.20;;
54923;SDS011;40825;52.270;20.984;2022-11-20T02:56:50;27.80;;;13.20;;
54923;SDS011;40825;52.270;20.984;2022-11-20T02:59:15;29.70;;;12.40;;
54923;SDS011;40825;52.270;20.984;2022-11-20T03:01:42;29.50;;;13.50;;
54923;SDS011;40825;52.270;20.984;2022-11-20T03:04:08;27.00;;;12.70;;
54923;SDS011;40825;52.270;20.984;2022-11-20T03:06:33;26.40;;;14.00;;
54923;SDS011;40825;52.270;20.984;2022-11-20T03:08:59;25.50;;;11.70;;
54923;SDS011;40825;52.270;20.984;2022-11-20T03:11:25;22.50;;;10.50;;
54923;SDS011;40825;52.270;20.984;2022-11-20T03:13:51;29.90;;;13.30;;
54923;SDS011;40825;52.270;20.984;2022-11-20T03:16:17;31.40;;;15.10;;
54923;SDS011;40825;52.270;20.984;2022-11-20T03:18:45;28.40;;;12.10;;
54923;SDS011;40825;52.270;20.984;2022-11-20T03:21:11;26.80;;;11.70;;
54923;SDS011;40825;52.270;20.984;2022-11-20T03:23:37;30.50;;;11.50;;
54923;SDS011;40825;52.270;20.984;2022-11-20T03:26:14;29.00;;;11.60;;
54923;SDS011;40825;52.270;20.984;2022-11-20T03:28:50;29.50;;;13.10;;
54923;SDS011;40825;52.270;20.984;2022-11-20T03:31:18;29.50;;;13.90;;
54923;SDS011;40825;52.270;20.984;2022-11-20T03:33:46;24.50;;;11.10;;
54923;SDS011;40825;52.270;20.984;2022-11-20T03:36:13;26.70;;;10.80;;
54923;SDS011;40825;52.270;20.984;2022-11-20T03:38:40;34.80;;;13.60;;
54923;SDS011;40825;52.270;20.984;2022-11-20T03:41:10;32.80;;;14.30;;
54923;SDS011;40825;52.270;20.984;2022-11-20T03:43:37;26.90;;;11.70;;
54923;SDS011;40825;52.270;20.984;2022-11-20T03:46:04;35.50;;;15.80;;
54923;SDS011;40825;52.270;20.984;2022-11-20T03:48:30;31.30;;;13.70;;
54923;SDS011;40825;52.270;20.984;2022-11-20T03:53:41;30.50;;;12.60;;
54923;SDS011;40825;52.270;20.984;2022-11-20T03:56:08;34.00;;;13.40;;
54923;SDS011;40825;52.270;20.984;2022-11-20T03:58:35;33.30;;;15.70;;
54923;SDS011;40825;52.270;20.984;2022-11-20T04:01:12;30.90;;;12.80;;
54923;SDS011;40825;52.270;20.984;2022-11-20T04:03:40;29.80;;;13.80;;
54923;SDS011;40825;52.270;20.984;2022-11-20T04:06:12;25.00;;;12.00;;
54923;SDS011;40825;52.270;20.984;2022-11-20T04:08:40;28.90;;;12.60;;
54923;SDS011;40825;52.270;20.984;2022-11-20T04:11:10;25.50;;;10.60;;
54923;SDS011;40825;52.270;20.984;2022-11-20T04:13:47;36.60;;;14.90;;
54923;SDS011;40825;52.270;20.984;2022-11-20T04:16:14;31.00;;;14.20;;
54923;SDS011;40825;52.270;20.984;2022-11-20T04:18:40;25.40;;;11.40;;
54923;SDS011;40825;52.270;20.984;2022-11-20T04:21:06;30.60;;;12.30;;
54923;SDS011;40825;52.270;20.984;2022-11-20T04:23:31;34.20;;;14.30;;
54923;SDS011;40825;52.270;20.984;2022-11-20T04:26:07;28.00;;;12.40;;
54923;SDS011;40825;52.270;20.984;2022-11-20T04:28:34;24.50;;;11.80;;
54923;SDS011;40825;52.270;20.984;2022-11-20T04:33:36;23.10;;;11.50;;
54923;SDS011;40825;52.270;20.984;2022-11-20T04:36:06;26.00;;;11.70;;
54923;SDS011;40825;52.270;20.984;2022-11-20T04:38:36;32.30;;;12.80;;
54923;SDS011;40825;52.270;20.984;2022-11-20T04:41:04;29.70;;;12.00;;
54923;SDS011;40825;52.270;20.984;2022-11-20T04:43:31;27.80;;;10.60;;
54923;SDS011;40825;52.270;20.984;2022-11-20T04:45:57;28.10;;;12.10;;
54923;SDS011;40825;52.270;20.984;2022-11-20T04:48:24;31.00;;;11.70;;
54923;SDS011;40825;52.270;20.984;2022-11-20T04:50:50;27.30;;;12.20;;
54923;SDS011;40825;52.270;20.984;2022-11-20T04:53:17;30.50;;;13.20;;
54923;SDS011;40825;52.270;20.984;2022-11-20T04:55:43;32.10;;;13.80;;
54923;SDS011;40825;52.270;20.984;2022-11-20T04:58:08;28.30;;;12.20;;
54923;SDS011;40825;52.270;20.984;2022-11-20T05:00:34;27.70;;;12.40;;
54923;SDS011;40825;52.270;20.984;2022-11-20T05:02:59;25.60;;;10.40;;
54923;SDS011;40825;52.270;20.984;2022-11-20T05:05:25;28.00;;;11.50;;
54923;SDS011;40825;52.270;20.984;2022-11-20T05:07:50;29.70;;;12.70;;
54923;SDS011;40825;52.270;20.984;2022-11-20T05:10:16;23.60;;;9.80;;
54923;SDS011;40825;52.270;20.984;2022-11-20T05:12:41;28.50;;;11.30;;
54923;SDS011;40825;52.270;20.984;2022-11-20T05:15:07;25.20;;;10.90;;
54923;SDS011;40825;52.270;20.984;2022-11-20T05:17:33;27.70;;;11.10;;
54923;SDS011;40825;52.270;20.984;2022-11-20T05:19:58;27.00;;;12.30;;
54923;SDS011;40825;52.270;20.984;2022-11-20T05:22:24;25.70;;;12.50;;
54923;SDS011;40825;52.270;20.984;2022-11-20T05:24:49;30.80;;;12.10;;
54923;SDS011;40825;52.270;20.984;2022-11-20T05:27:14;24.00;;;11.30;;
54923;SDS011;40825;52.270;20.984;2022-11-20T05:29:40;26.50;;;11.10;;
54923;SDS011;40825;52.270;20.984;2022-11-20T05:32:05;24.10;;;10.50;;
54923;SDS011;40825;52.270;20.984;2022-11-20T05:34:34;30.60;;;11.40;;
54923;SDS011;40825;52.270;20.984;2022-11-20T05:36:59;29.60;;;12.90;;
54923;SDS011;40825;52.270;20.984;2022-11-20T05:39:25;33.40;;;12.40;;
54923;SDS011;40825;52.270;20.984;2022-11-20T05:41:50;27.80;;;11.40;;
54923;SDS011;40825;52.270;20.984;2022-11-20T05:44:35;27.60;;;10.90;;
54923;SDS011;40825;52.270;20.984;2022-11-20T05:47:01;25.10;;;10.40;;
54923;SDS011;40825;52.270;20.984;2022-11-20T05:49:26;31.90;;;13.10;;
54923;SDS011;40825;52.270;20.984;2022-11-20T05:51:51;25.80;;;10.10;;
54923;SDS011;40825;52.270;20.984;2022-11-20T05:54:17;24.00;;;9.10;;
54923;SDS011;40825;52.270;20.984;2022-11-20T05:56:42;24.80;;;11.40;;
54923;SDS011;40825;52.270;20.984;2022-11-20T05:59:08;25.60;;;12.80;;
54923;SDS011;40825;52.270;20.984;2022-11-20T06:01:33;24.80;;;9.90;;
54923;SDS011;40825;52.270;20.984;2022-11-20T06:04:00;28.20;;;12.00;;
54923;SDS011;40825;52.270;20.984;2022-11-20T06:06:26;31.90;;;13.50;;
54923;SDS011;40825;52.270;20.984;2022-11-20T06:08:52;26.10;;;11.30;;
54923;SDS011;40825;52.270;20.984;2022-11-20T06:11:17;33.30;;;13.90;;
54923;SDS011;40825;52.270;20.984;2022-11-20T06:13:44;27.50;;;13.20;;
54923;SDS011;40825;52.270;20.984;2022-11-20T06:16:11;29.20;;;12.20;;
54923;SDS011;40825;52.270;20.984;2022-11-20T06:21:15;25.20;;;10.50;;
54923;SDS011;40825;52.270;20.984;2022-11-20T06:23:43;24.10;;;8.90;;
54923;SDS011;40825;52.270;20.984;2022-11-20T06:26:10;23.40;;;9.80;;
54923;SDS011;40825;52.270;20.984;2022-11-20T06:28:38;22.90;;;10.10;;
54923;SDS011;40825;52.270;20.984;2022-11-20T06:31:04;27.10;;;12.60;;
54923;SDS011;40825;52.270;20.984;2022-11-20T06:33:30;26.80;;;12.30;;
54923;SDS011;40825;52.270;20.984;2022-11-20T06:35:56;26.40;;;11.80;;
54923;SDS011;40825;52.270;20.984;2022-11-20T06:38:23;24.60;;;11.10;;
54923;SDS011;40825;52.270;20.984;2022-11-20T06:40:52;25.60;;;11.90;;
54923;SDS011;40825;52.270;20.984;2022-11-20T06:43:19;27.50;;;10.40;;
54923;SDS011;40825;52.270;20.984;2022-11-20T06:45:44;22.60;;;10.50;;
54923;SDS011;40825;52.270;20.984;2022-11-20T06:48:10;26.10;;;11.20;;
54923;SDS011;40825;52.270;20.984;2022-11-20T06:50:36;24.90;;;11.60;;
54923;SDS011;40825;52.270;20.984;2022-11-20T06:53:03;30.00;;;13.20;;
54923;SDS011;40825;52.270;20.984;2022-11-20T06:55:30;22.40;;;11.10;;
54923;SDS011;40825;52.270;20.984;2022-11-20T06:57:56;27.00;;;11.90;;
54923;SDS011;40825;52.270;20.984;2022-11-20T07:00:22;25.90;;;10.80;;
54923;SDS011;40825;52.270;20.984;2022-11-20T07:02:47;26.80;;;12.60;;
54923;SDS011;40825;52.270;20.984;2022-11-20T07:05:13;23.20;;;11.00;;
54923;SDS011;40825;52.270;20.984;2022-11-20T07:07:38;25.80;;;10.50;;
54923;SDS011;40825;52.270;20.984;2022-11-20T07:10:04;23.50;;;9.90;;
54923;SDS011;40825;52.270;20.984;2022-11-20T07:12:30;28.90;;;11.40;;
54923;SDS011;40825;52.270;20.984;2022-11-20T07:14:55;26.10;;;12.90;;
54923;SDS011;40825;52.270;20.984;2022-11-20T07:17:21;22.00;;;9.30;;
54923;SDS011;40825;52.270;20.984;2022-11-20T07:19:46;24.90;;;11.00;;
54923;SDS011;40825;52.270;20.984;2022-11-20T07:22:12;29.20;;;13.20;;
54923;SDS011;40825;52.270;20.984;2022-11-20T07:24:38;22.80;;;10.50;;
54923;SDS011;40825;52.270;20.984;2022-11-20T07:27:04;28.10;;;12.20;;
54923;SDS011;40825;52.270;20.984;2022-11-20T07:29:29;27.50;;;10.60;;
54923;SDS011;40825;52.270;20.984;2022-11-20T07:31:55;28.50;;;11.20;;
54923;SDS011;40825;52.270;20.984;2022-11-20T07:34:21;33.00;;;14.10;;
54923;SDS011;40825;52.270;20.984;2022-11-20T07:36:47;27.20;;;12.50;;
54923;SDS011;40825;52.270;20.984;2022-11-20T07:39:13;29.30;;;12.70;;
54923;SDS011;40825;52.270;20.984;2022-11-20T07:41:38;33.10;;;15.80;;
54923;SDS011;40825;52.270;20.984;2022-11-20T07:44:04;31.20;;;14.60;;
54923;SDS011;40825;52.270;20.984;2022-11-20T07:46:29;28.00;;;12.60;;
54923;SDS011;40825;52.270;20.984;2022-11-20T07:48:54;31.10;;;14.40;;
54923;SDS011;40825;52.270;20.984;2022-11-20T07:51:20;33.10;;;15.40;;
54923;SDS011;40825;52.270;20.984;2022-11-20T07:53:45;28.00;;;12.60;;
54923;SDS011;40825;52.270;20.984;2022-11-20T07:56:11;30.50;;;13.50;;
54923;SDS011;40825;52.270;20.984;2022-11-20T07:58:36;30.40;;;13.20;;
54923;SDS011;40825;52.270;20.984;2022-11-20T08:01:02;32.10;;;15.00;;
54923;SDS011;40825;52.270;20.984;2022-11-20T08:03:32;28.90;;;13.20;;
54923;SDS011;40825;52.270;20.984;2022-11-20T08:05:58;32.70;;;14.10;;
54923;SDS011;40825;52.270;20.984;2022-11-20T08:08:25;31.20;;;14.00;;
54923;SDS011;40825;52.270;20.984;2022-11-20T08:10:51;27.50;;;12.50;;
54923;SDS011;40825;52.270;20.984;2022-11-20T08:13:17;30.50;;;14.00;;
54923;SDS011;40825;52.270;20.984;2022-11-20T08:16:01;31.40;;;16.20;;
54923;SDS011;40825;52.270;20.984;2022-11-20T08:18:26;31.50;;;15.60;;
54923;SDS011;40825;52.270;20.984;2022-11-20T08:20:52;39.70;;;19.40;;
54923;SDS011;40825;52.270;20.984;2022-11-20T08:23:17;32.10;;;15.80;;
54923;SDS011;40825;52.270;20.984;2022-11-20T08:25:43;33.50;;;16.20;;
54923;SDS011;40825;52.270;20.984;2022-11-20T08:28:09;32.10;;;15.40;;
54923;SDS011;40825;52.270;20.984;2022-11-20T08:30:35;30.80;;;13.50;;
54923;SDS011;40825;52.270;20.984;2022-11-20T08:33:02;24.60;;;11.50;;
54923;SDS011;40825;52.270;20.984;2022-11-20T08:35:34;26.20;;;12.00;;
54923;SDS011;40825;52.270;20.984;2022-11-20T08:38:01;29.60;;;15.60;;
54923;SDS011;40825;52.270;20.984;2022-11-20T08:40:28;32.10;;;14.50;;
54923;SDS011;40825;52.270;20.984;2022-11-20T08:42:53;31.10;;;14.50;;
54923;SDS011;40825;52.270;20.984;2022-11-20T08:45:19;30.60;;;15.00;;
54923;SDS011;40825;52.270;20.984;2022-11-20T08:47:45;32.70;;;15.30;;
54923;SDS011;40825;52.270;20.984;2022-11-20T08:50:11;33.00;;;16.00;;
54923;SDS011;40825;52.270;20.984;2022-11-20T08:52:38;34.70;;;17.20;;
54923;SDS011;40825;52.270;20.984;2022-11-20T08:55:04;37.30;;;17.10;;
54923;SDS011;40825;52.270;20.984;2022-11-20T08:57:31;30.70;;;15.30;;
54923;SDS011;40825;52.270;20.984;2022-11-20T08:59:58;36.20;;;17.50;;
54923;SDS011;40825;52.270;20.984;2022-11-20T09:02:23;37.40;;;19.50;;
54923;SDS011;40825;52.270;20.984;2022-11-20T09:04:48;34.20;;;17.50;;
54923;SDS011;40825;52.270;20.984;2022-11-20T09:07:14;32.60;;;18.40;;
54923;SDS011;40825;52.270;20.984;2022-11-20T09:09:39;42.70;;;19.80;;
54923;SDS011;40825;52.270;20.984;2022-11-20T09:12:05;33.60;;;18.30;;
54923;SDS011;40825;52.270;20.984;2022-11-20T09:14:30;37.20;;;19.10;;
54923;SDS011;40825;52.270;20.984;2022-11-20T09:16:56;37.80;;;19.90;;
54923;SDS011;40825;52.270;20.984;2022-11-20T09:19:21;38.90;;;19.30;;
54923;SDS011;40825;52.270;20.984;2022-11-20T09:21:49;36.00;;;19.80;;
54923;SDS011;40825;52.270;20.984;2022-11-20T09:24:15;34.70;;;20.00;;
54923;SDS011;40825;52.270;20.984;2022-11-20T09:26:41;33.60;;;18.70;;
54923;SDS011;40825;52.270;20.984;2022-11-20T09:29:06;39.30;;;20.30;;
54923;SDS011;40825;52.270;20.984;2022-11-20T09:31:32;36.10;;;20.00;;
54923;SDS011;40825;52.270;20.984;2022-11-20T09:33:57;42.80;;;21.60;;
54923;SDS011;40825;52.270;20.984;2022-11-20T09:36:23;34.10;;;18.50;;
54923;SDS011;40825;52.270;20.984;2022-11-20T09:38:48;35.10;;;19.70;;
54923;SDS011;40825;52.270;20.984;2022-11-20T09:41:19;38.70;;;20.20;;
54923;SDS011;40825;52.270;20.984;2022-11-20T09:47:26;43.30;;;22.10;;
54923;SDS011;40825;52.270;20.984;2022-11-20T09:52:47;37.40;;;19.10;;
54923;SDS011;40825;52.270;20.984;2022-11-20T09:55:34;38.70;;;18.90;;
54923;SDS011;40825;52.270;20.984;2022-11-20T09:58:01;30.70;;;16.70;;
54923;SDS011;40825;52.270;20.984;2022-11-20T10:00:29;31.50;;;16.20;;
54923;SDS011;40825;52.270;20.984;2022-11-20T10:03:30;34.80;;;18.70;;
54923;SDS011;40825;52.270;20.984;2022-11-20T10:06:01;34.50;;;17.00;;
54923;SDS011;40825;52.270;20.984;2022-11-20T10:08:51;39.30;;;18.30;;
54923;SDS011;40825;52.270;20.984;2022-11-20T10:11:41;32.60;;;15.90;;
54923;SDS011;40825;52.270;20.984;2022-11-20T10:25:38;37.70;;;17.50;;
54923;SDS011;40825;52.270;20.984;2022-11-20T10:28:24;35.40;;;17.30;;
54923;SDS011;40825;52.270;20.984;2022-11-20T10:31:11;39.40;;;18.70;;
54923;SDS011;40825;52.270;20.984;2022-11-20T10:33:44;30.60;;;16.60;;
54923;SDS011;40825;52.270;20.984;2022-11-20T10:36:25;35.90;;;17.50;;
54923;SDS011;40825;52.270;20.984;2022-11-20T10:39:01;25.00;;;13.20;;
54923;SDS011;40825;52.270;20.984;2022-11-20T10:41:36;33.60;;;18.60;;
54923;SDS011;40825;52.270;20.984;2022-11-20T10:44:13;33.20;;;16.20;;
54923;SDS011;40825;52.270;20.984;2022-11-20T10:47:00;36.70;;;16.60;;
54923;SDS011;40825;52.270;20.984;2022-11-20T10:49:26;32.40;;;16.80;;
54923;SDS011;40825;52.270;20.984;2022-11-20T10:52:03;34.20;;;16.50;;
54923;SDS011;40825;52.270;20.984;2022-11-20T10:57:03;29.80;;;14.00;;
54923;SDS011;40825;52.270;20.984;2022-11-20T10:59:49;33.70;;;18.60;;
54923;SDS011;40825;52.270;20.984;2022-11-20T11:02:20;36.00;;;15.70;;
54923;SDS011;40825;52.270;20.984;2022-11-20T11:04:49;29.20;;;13.90;;
54923;SDS011;40825;52.270;20.984;2022-11-20T11:10:16;37.70;;;15.00;;
54923;SDS011;40825;52.270;20.984;2022-11-20T11:12:46;30.70;;;14.30;;
54923;SDS011;40825;52.270;20.984;2022-11-20T11:15:29;27.70;;;14.30;;
54923;SDS011;40825;52.270;20.984;2022-11-20T11:18:02;32.30;;;14.20;;
54923;SDS011;40825;52.270;20.984;2022-11-20T11:20:27;28.90;;;14.60;;
54923;SDS011;40825;52.270;20.984;2022-11-20T11:22:54;26.60;;;11.70;;
54923;SDS011;40825;52.270;20.984;2022-11-20T11:25:23;29.70;;;13.50;;
54923;SDS011;40825;52.270;20.984;2022-11-20T11:27:49;34.50;;;15.40;;
54923;SDS011;40825;52.270;20.984;2022-11-20T11:30:17;34.80;;;16.30;;
54923;SDS011;40825;52.270;20.984;2022-11-20T11:32:44;27.10;;;13.10;;
54923;SDS011;40825;52.270;20.984;2022-11-20T11:37:46;35.70;;;15.00;;
54923;SDS011;40825;52.270;20.984;2022-11-20T11:40:13;32.90;;;15.10;;
54923;SDS011;40825;52.270;20.984;2022-11-20T11:42:43;28.70;;;13.00;;
54923;SDS011;40825;52.270;20.984;2022-11-20T11:45:13;29.60;;;13.30;;
54923;SDS011;40825;52.270;20.984;2022-11-20T12:01:04;30.20;;;14.40;;
54923;SDS011;40825;52.270;20.984;2022-11-20T12:03:36;31.90;;;14.40;;
54923;SDS011;40825;52.270;20.984;2022-11-20T12:06:10;29.80;;;14.20;;
54923;SDS011;40825;52.270;20.984;2022-11-20T12:08:46;32.90;;;16.80;;
54923;SDS011;40825;52.270;20.984;2022-11-20T12:14:02;34.20;;;15.80;;
54923;SDS011;40825;52.270;20.984;2022-11-20T12:16:49;30.30;;;13.90;;
54923;SDS011;40825;52.270;20.984;2022-11-20T12:19:16;27.40;;;13.40;;
54923;SDS011;40825;52.270;20.984;2022-11-20T12:30:10;24.80;;;12.10;;
54923;SDS011;40825;52.270;20.984;2022-11-20T12:36:17;22.60;;;10.30;;
54923;SDS011;40825;52.270;20.984;2022-11-20T12:38:56;32.10;;;14.20;;
54923;SDS011;40825;52.270;20.984;2022-11-20T12:44:35;28.20;;;11.20;;
54923;SDS011;40825;52.270;20.984;2022-11-20T12:58:55;28.20;;;12.20;;
54923;SDS011;40825;52.270;20.984;2022-11-20T13:01:44;26.80;;;12.60;;
54923;SDS011;40825;52.270;20.984;2022-11-20T13:07:12;30.40;;;14.70;;
54923;SDS011;40825;52.270;20.984;2022-11-20T13:09:46;37.00;;;17.80;;
54923;SDS011;40825;52.270;20.984;2022-11-20T13:17:58;29.00;;;14.60;;
54923;SDS011;40825;52.270;20.984;2022-11-20T13:20:26;28.10;;;14.50;;
54923;SDS011;40825;52.270;20.984;2022-11-20T13:22:53;31.30;;;15.10;;
54923;SDS011;40825;52.270;20.984;2022-11-20T13:25:27;33.50;;;17.60;;
54923;SDS011;40825;52.270;20.984;2022-11-20T13:28:02;34.60;;;18.20;;
54923;SDS011;40825;52.270;20.984;2022-11-20T13:30:30;32.80;;;16.50;;
54923;SDS011;40825;52.270;20.984;2022-11-20T13:33:09;33.30;;;15.20;;
54923;SDS011;40825;52.270;20.984;2022-11-20T13:35:55;34.20;;;18.30;;
54923;SDS011;40825;52.270;20.984;2022-11-20T13:38:23;36.10;;;19.10;;
54923;SDS011;40825;52.270;20.984;2022-11-20T13:40:59;35.80;;;16.50;;
54923;SDS011;40825;52.270;20.984;2022-11-20T13:43:48;32.50;;;14.80;;
54923;SDS011;40825;52.270;20.984;2022-11-20T13:46:14;33.90;;;16.50;;
54923;SDS011;40825;52.270;20.984;2022-11-20T13:48:44;30.70;;;14.20;;
54923;SDS011;40825;52.270;20.984;2022-11-20T13:51:15;35.10;;;17.70;;
54923;SDS011;40825;52.270;20.984;2022-11-20T14:00:22;31.40;;;14.20;;
54923;SDS011;40825;52.270;20.984;2022-11-20T14:05:30;34.50;;;15.20;;
54923;SDS011;40825;52.270;20.984;2022-11-20T14:08:02;34.60;;;16.30;;
54923;SDS011;40825;52.270;20.984;2022-11-20T14:10:29;30.50;;;15.00;;
54923;SDS011;40825;52.270;20.984;2022-11-20T14:12:55;27.80;;;12.80;;
54923;SDS011;40825;52.270;20.984;2022-11-20T14:15:24;31.70;;;15.10;;
54923;SDS011;40825;52.270;20.984;2022-11-20T14:17:55;31.70;;;15.60;;
54923;SDS011;40825;52.270;20.984;2022-11-20T14:20:22;31.70;;;15.10;;
54923;SDS011;40825;52.270;20.984;2022-11-20T14:22:51;32.90;;;14.60;;
54923;SDS011;40825;52.270;20.984;2022-11-20T14:25:19;31.40;;;14.70;;
54923;SDS011;40825;52.270;20.984;2022-11-20T14:27:52;31.70;;;15.10;;
54923;SDS011;40825;52.270;20.984;2022-11-20T14:30:26;28.50;;;13.50;;
54923;SDS011;40825;52.270;20.984;2022-11-20T14:32:57;33.20;;;15.90;;
54923;SDS011;40825;52.270;20.984;2022-11-20T14:35:27;28.90;;;13.10;;
54923;SDS011;40825;52.270;20.984;2022-11-20T14:37:56;30.30;;;14.20;;
54923;SDS011;40825;52.270;20.984;2022-11-20T14:40:26;31.00;;;15.40;;
54923;SDS011;40825;52.270;20.984;2022-11-20T14:43:15;35.00;;;16.20;;
54923;SDS011;40825;52.270;20.984;2022-11-20T14:46:00;35.50;;;17.10;;
54923;SDS011;40825;52.270;20.984;2022-11-20T14:48:29;33.90;;;15.80;;
54923;SDS011;40825;52.270;20.984;2022-11-20T14:50:57;31.80;;;14.90;;
54923;SDS011;40825;52.270;20.984;2022-11-20T14:53:23;33.70;;;15.60;;
54923;SDS011;40825;52.270;20.984;2022-11-20T14:55:54;26.50;;;12.60;;
54923;SDS011;40825;52.270;20.984;2022-11-20T14:58:22;29.60;;;13.60;;
54923;SDS011;40825;52.270;20.984;2022-11-20T15:00:53;31.80;;;16.70;;
54923;SDS011;40825;52.270;20.984;2022-11-20T15:03:21;31.10;;;14.10;;
54923;SDS011;40825;52.270;20.984;2022-11-20T15:05:47;30.10;;;14.60;;
54923;SDS011;40825;52.270;20.984;2022-11-20T15:08:14;33.20;;;14.60;;
54923;SDS011;40825;52.270;20.984;2022-11-20T15:10:50;31.70;;;14.90;;
54923;SDS011;40825;52.270;20.984;2022-11-20T15:13:19;30.80;;;13.50;;
54923;SDS011;40825;52.270;20.984;2022-11-20T15:15:50;28.50;;;13.20;;
54923;SDS011;40825;52.270;20.984;2022-11-20T15:18:24;26.40;;;13.20;;
54923;SDS011;40825;52.270;20.984;2022-11-20T15:20:55;26.50;;;11.70;;
54923;SDS011;40825;52.270;20.984;2022-11-20T15:23:22;34.30;;;15.10;;
54923;SDS011;40825;52.270;20.984;2022-11-20T15:25:48;35.00;;;15.50;;
54923;SDS011;40825;52.270;20.984;2022-11-20T15:31:16;32.90;;;14.80;;
54923;SDS011;40825;52.270;20.984;2022-11-20T15:33:44;32.90;;;15.90;;
54923;SDS011;40825;52.270;20.984;2022-11-20T15:36:10;33.10;;;15.70;;
54923;SDS011;40825;52.270;20.984;2022-11-20T15:38:36;30.30;;;14.00;;
54923;SDS011;40825;52.270;20.984;2022-11-20T15:41:02;34.80;;;15.00;;
54923;SDS011;40825;52.270;20.984;2022-11-20T15:43:27;30.70;;;15.40;;
54923;SDS011;40825;52.270;20.984;2022-11-20T15:46:02;32.00;;;13.70;;
54923;SDS011;40825;52.270;20.984;2022-11-20T15:48:31;35.40;;;15.90;;
54923;SDS011;40825;52.270;20.984;2022-11-20T15:51:06;28.20;;;13.80;;
54923;SDS011;40825;52.270;20.984;2022-11-20T15:53:49;34.50;;;18.80;;
54923;SDS011;40825;52.270;20.984;2022-11-20T15:56:15;31.70;;;14.90;;
54923;SDS011;40825;52.270;20.984;2022-11-20T15:58:41;32.30;;;14.70;;
54923;SDS011;40825;52.270;20.984;2022-11-20T16:01:10;35.30;;;14.80;;